Offutt Lake, Washington
Current Conditions -  °F | °C
As of 10:54 PM on Friday 24 Oct 2014 (Local Time) from KOLM Reporting Station
Overcast Overcast  
Wind Chill: 11°   Ceiling: 500
Heat Index: 11°   Visibility: 10mi
Dew Point:   Wind: 9mph
Humidity: 92%   Direction: 10°N
Pressure: 29.76"   Gusts: NA
Location:  46.9755°N, 122.872°W
Report Text: KOLM 250554Z 01008KT 10SM OVC005 11/09 A2976 RMK AO2 RAE28 SLP080 P0006 60035 T01060094 10117 20100 58022
Loading
Personal Weather Stations






























Interactive Weather Map
Tropical Storm Tracking
New forecast layout! Learn more

10-Day Weather Forecast

Advertisements
Track Severe Weather on mobile